Time;durP1;ratioP1;P1;durP2;ratioP2;P2;SDS_P1;SDS_P2;PMS_P1;PMS_P2;Temp;Humidity;BMP_temperature;BMP_pressure;BME280_temperature;BME280_humidity;BME280_pressure;Samples;Min_cycle;Max_cycle;Signal;HPM_P1;HPM_P2
2021/10/19 00:01:02;;;;;;;4.63;4.10;;;10.50;99.90;;;;;;5092772;28;20173;-68
2021/10/19 00:03:28;;;;;;;5.37;3.80;;;10.50;99.90;;;;;;5092578;28;20175;-68
2021/10/19 00:05:54;;;;;;;5.43;4.00;;;10.50;99.90;;;;;;5092478;28;20818;-68
2021/10/19 00:08:19;;;;;;;7.37;5.27;;;10.50;99.90;;;;;;5092663;28;20276;-68
2021/10/19 00:10:45;;;;;;;4.33;3.93;;;10.50;99.90;;;;;;5092627;28;20443;-68
2021/10/19 00:13:11;;;;;;;7.13;4.73;;;10.40;99.90;;;;;;5092005;28;20166;-68
2021/10/19 00:15:40;;;;;;;4.60;4.20;;;10.40;99.90;;;;;;5092362;28;20607;-68
2021/10/19 00:18:08;;;;;;;7.27;4.30;;;10.40;99.90;;;;;;5092189;28;20232;-68
2021/10/19 00:20:34;;;;;;;7.20;3.80;;;10.40;99.90;;;;;;5092491;28;20474;-70
2021/10/19 00:22:59;;;;;;;8.50;4.93;;;10.40;99.90;;;;;;5092469;28;20921;-68
2021/10/19 00:25:25;;;;;;;6.33;5.33;;;10.40;99.90;;;;;;5092138;28;20280;-68
2021/10/19 00:27:51;;;;;;;10.00;4.50;;;10.40;99.90;;;;;;5092370;28;20564;-68
2021/10/19 00:30:17;;;;;;;7.37;5.40;;;10.40;99.90;;;;;;5092201;28;20686;-68
2021/10/19 00:32:42;;;;;;;4.80;3.90;;;10.40;99.90;;;;;;5092312;28;20403;-69
2021/10/19 00:35:09;;;;;;;5.47;4.20;;;10.40;99.90;;;;;;5092223;28;20177;-68
2021/10/19 00:37:35;;;;;;;5.50;3.90;;;10.40;99.90;;;;;;5091983;28;20197;-68
2021/10/19 00:40:01;;;;;;;5.23;4.77;;;10.40;99.90;;;;;;5092090;28;21036;-70
2021/10/19 00:42:26;;;;;;;7.60;5.20;;;10.40;99.90;;;;;;5092114;28;20170;-70
2021/10/19 00:44:52;;;;;;;5.40;4.40;;;10.30;99.90;;;;;;5090422;28;20455;-69
2021/10/19 00:47:21;;;;;;;6.60;4.47;;;10.30;99.90;;;;;;5090662;28;20189;-68
2021/10/19 00:49:48;;;;;;;7.43;4.50;;;10.30;99.90;;;;;;5092115;28;20177;-68
2021/10/19 00:52:15;;;;;;;5.87;5.03;;;10.30;99.90;;;;;;5090462;28;20408;-68
2021/10/19 00:54:42;;;;;;;6.40;4.33;;;10.20;99.90;;;;;;5091849;28;20404;-68
2021/10/19 00:57:08;;;;;;;6.97;5.10;;;10.20;99.90;;;;;;5091818;28;20568;-68
2021/10/19 00:59:36;;;;;;;8.53;5.40;;;10.20;99.90;;;;;;5091876;28;20443;-68
2021/10/19 01:02:03;;;;;;;7.40;4.97;;;10.20;99.90;;;;;;5091642;28;20278;-68
2021/10/19 01:04:28;;;;;;;7.70;4.83;;;10.10;99.90;;;;;;5091449;28;21002;-67
2021/10/19 01:06:54;;;;;;;6.20;5.60;;;10.10;99.90;;;;;;5091593;28;20463;-67
2021/10/19 01:09:19;;;;;;;7.00;5.40;;;10.10;99.90;;;;;;5091730;28;20168;-69
2021/10/19 01:11:45;;;;;;;8.20;4.30;;;10.00;99.90;;;;;;5091735;28;20534;-68
2021/10/19 01:14:10;;;;;;;8.47;6.13;;;10.00;99.90;;;;;;5091606;28;20162;-68
2021/10/19 01:16:36;;;;;;;5.93;4.80;;;10.00;99.90;;;;;;5085667;28;20205;-68
2021/10/19 01:19:01;;;;;;;8.60;5.50;;;10.00;99.90;;;;;;5079388;28;20231;-69
2021/10/19 01:21:27;;;;;;;7.07;4.93;;;10.00;99.90;;;;;;5091617;28;20675;-67
2021/10/19 01:23:52;;;;;;;8.60;5.40;;;10.00;99.90;;;;;;5080129;28;20174;-68
2021/10/19 01:26:17;;;;;;;7.63;4.10;;;9.90;99.90;;;;;;5073847;28;20628;-69
2021/10/19 01:28:43;;;;;;;7.90;4.90;;;9.90;99.90;;;;;;5075482;28;20170;-68
2021/10/19 01:31:12;;;;;;;9.23;5.30;;;9.90;99.90;;;;;;5075241;28;20625;-68
2021/10/19 01:33:39;;;;;;;8.03;4.70;;;9.80;99.90;;;;;;5075131;28;20708;-68
2021/10/19 01:36:05;;;;;;;7.03;5.30;;;9.80;99.90;;;;;;5083074;28;20443;-69
2021/10/19 01:38:33;;;;;;;8.17;5.30;;;9.80;99.90;;;;;;5095169;28;20432;-68
2021/10/19 01:40:59;;;;;;;7.67;5.47;;;9.80;99.90;;;;;;5095416;28;20929;-67
2021/10/19 01:43:26;;;;;;;7.17;5.00;;;9.70;99.90;;;;;;5095327;28;20400;-68
2021/10/19 01:45:57;;;;;;;6.50;4.97;;;9.70;99.90;;;;;;5093996;28;20194;-69
2021/10/19 01:48:23;;;;;;;10.77;6.07;;;9.70;99.90;;;;;;5095371;28;20411;-68
2021/10/19 01:50:50;;;;;;;9.00;6.07;;;9.70;99.90;;;;;;5095385;28;20402;-69
2021/10/19 01:53:16;;;;;;;7.00;5.07;;;9.70;99.90;;;;;;5095404;28;20395;-68
2021/10/19 01:55:41;;;;;;;7.27;5.93;;;9.70;99.90;;;;;;5095160;28;20403;-69
2021/10/19 01:58:08;;;;;;;6.53;5.57;;;9.70;99.90;;;;;;5095169;28;20432;-68
2021/10/19 02:00:35;;;;;;;6.47;4.80;;;9.70;99.90;;;;;;5095129;28;20410;-68
2021/10/19 02:03:05;;;;;;;8.10;6.37;;;9.70;99.90;;;;;;5093818;28;20407;-68
2021/10/19 02:05:31;;;;;;;7.47;5.60;;;9.70;99.90;;;;;;5094800;28;20447;-69
2021/10/19 02:07:58;;;;;;;7.33;6.30;;;9.80;99.90;;;;;;5094774;28;20442;-69
2021/10/19 02:10:23;;;;;;;9.90;6.20;;;9.80;99.90;;;;;;5094863;28;20161;-69
2021/10/19 02:12:49;;;;;;;7.17;5.47;;;9.80;99.90;;;;;;5094725;28;20392;-70
2021/10/19 02:15:14;;;;;;;8.27;5.57;;;9.90;99.90;;;;;;5094633;28;20249;-69
2021/10/19 02:17:40;;;;;;;6.30;5.10;;;9.80;99.90;;;;;;5094592;28;20257;-68
2021/10/19 02:20:06;;;;;;;6.43;5.17;;;9.80;99.90;;;;;;5094608;28;20208;-69
2021/10/19 02:22:33;;;;;;;6.60;5.17;;;9.80;99.90;;;;;;5094636;28;20174;-69
2021/10/19 02:24:59;;;;;;;7.40;4.57;;;9.90;99.90;;;;;;5094641;28;20449;-69
2021/10/19 02:27:25;;;;;;;6.00;4.93;;;9.80;99.90;;;;;;5094494;28;20423;-69
2021/10/19 02:29:51;;;;;;;7.63;4.97;;;9.80;99.90;;;;;;5094462;28;21127;-68
2021/10/19 02:32:17;;;;;;;7.77;4.83;;;9.90;99.90;;;;;;5094392;28;20514;-68
2021/10/19 02:34:42;;;;;;;7.80;5.83;;;9.90;99.90;;;;;;5092720;28;20302;-69
2021/10/19 02:37:08;;;;;;;6.33;5.00;;;9.80;99.90;;;;;;5093865;28;20474;-69
2021/10/19 02:39:34;;;;;;;9.60;6.07;;;9.80;99.90;;;;;;5094309;28;20173;-68
2021/10/19 02:41:59;;;;;;;11.73;5.10;;;9.90;99.90;;;;;;5093020;28;20416;-70
2021/10/19 02:44:25;;;;;;;7.17;5.60;;;9.90;99.90;;;;;;5094090;28;20173;-68
2021/10/19 02:46:50;;;;;;;10.30;6.17;;;9.80;99.90;;;;;;5094236;28;20178;-70
2021/10/19 02:49:16;;;;;;;7.07;5.33;;;9.80;99.90;;;;;;5094251;28;20168;-69
2021/10/19 02:51:41;;;;;;;6.63;5.87;;;9.80;99.90;;;;;;5094095;28;20215;-69
2021/10/19 02:54:07;;;;;;;8.77;5.77;;;9.80;99.90;;;;;;5093997;28;20251;-68
2021/10/19 02:56:33;;;;;;;8.97;5.10;;;9.80;99.90;;;;;;5092822;28;20197;-69
2021/10/19 02:58:58;;;;;;;7.40;6.00;;;9.80;99.90;;;;;;5092694;28;20169;-71
2021/10/19 03:01:24;;;;;;;9.10;5.70;;;9.80;99.90;;;;;;5094085;28;20179;-69
2021/10/19 03:03:49;;;;;;;7.90;6.13;;;9.80;99.90;;;;;;5093806;28;20222;-69
2021/10/19 03:06:15;;;;;;;16.27;7.90;;;9.70;99.90;;;;;;5093847;28;20200;-69
2021/10/19 03:08:40;;;;;;;9.17;6.10;;;9.70;99.90;;;;;;5094076;28;20174;-70
2021/10/19 03:11:06;;;;;;;9.10;6.37;;;9.70;99.90;;;;;;5093850;28;20236;-68
2021/10/19 03:13:31;;;;;;;9.40;6.13;;;9.70;99.90;;;;;;5093732;28;20158;-70
2021/10/19 03:15:57;;;;;;;6.80;5.57;;;9.70;99.90;;;;;;5093732;28;20210;-70
2021/10/19 03:18:23;;;;;;;9.43;6.07;;;9.70;99.90;;;;;;5093435;28;20209;-69
2021/10/19 03:20:49;;;;;;;7.60;5.03;;;9.70;99.90;;;;;;5093780;28;20166;-69
2021/10/19 03:23:16;;;;;;;7.03;5.63;;;9.70;99.90;;;;;;5093777;28;20405;-69
2021/10/19 03:25:41;;;;;;;9.30;6.10;;;9.60;99.90;;;;;;5093501;28;20452;-69
2021/10/19 03:28:10;;;;;;;7.97;6.43;;;9.70;99.90;;;;;;5093495;28;20424;-68
2021/10/19 03:30:35;;;;;;;9.13;6.47;;;9.60;99.90;;;;;;5093553;28;20262;-70
2021/10/19 03:33:03;;;;;;;6.97;5.67;;;9.60;99.90;;;;;;5093535;28;20488;-68
2021/10/19 03:35:31;;;;;;;6.40;5.63;;;9.60;99.90;;;;;;5093480;28;20286;-68
2021/10/19 03:37:57;;;;;;;9.70;6.30;;;9.60;99.90;;;;;;5093063;28;21135;-67
2021/10/19 03:40:22;;;;;;;9.57;6.83;;;9.60;99.90;;;;;;5093149;28;20487;-68
2021/10/19 03:42:49;;;;;;;10.33;6.33;;;9.60;99.90;;;;;;5093546;28;20169;-69
2021/10/19 03:45:18;;;;;;;7.90;5.50;;;9.60;99.90;;;;;;5093299;28;20540;-68
2021/10/19 03:47:45;;;;;;;5.80;5.10;;;9.60;99.90;;;;;;5086190;28;20955;-68
2021/10/19 03:50:12;;;;;;;8.00;5.60;;;9.60;99.90;;;;;;5093076;28;20441;-69
2021/10/19 03:52:37;;;;;;;8.53;6.73;;;9.60;99.90;;;;;;5093140;28;20417;-69
2021/10/19 03:55:04;;;;;;;10.50;7.80;;;9.60;99.90;;;;;;5093188;28;20403;-69
2021/10/19 03:57:30;;;;;;;10.07;6.60;;;9.60;99.90;;;;;;5093150;28;20231;-70
2021/10/19 03:59:55;;;;;;;6.47;5.40;;;9.60;99.90;;;;;;5092893;28;20400;-69
2021/10/19 04:02:21;;;;;;;8.00;5.80;;;9.50;99.90;;;;;;5092863;28;20177;-68
2021/10/19 04:04:46;;;;;;;10.87;6.50;;;9.60;99.90;;;;;;5091301;28;20712;-69
2021/10/19 04:07:13;;;;;;;8.23;6.73;;;9.60;99.90;;;;;;5092703;28;20264;-71
2021/10/19 04:09:39;;;;;;;8.70;6.03;;;9.50;99.90;;;;;;5092651;28;20511;-70
2021/10/19 04:12:05;;;;;;;8.87;6.20;;;9.60;99.90;;;;;;5092527;28;20449;-70
2021/10/19 04:14:30;;;;;;;11.67;6.97;;;9.50;99.90;;;;;;5092373;28;20166;-70
2021/10/19 04:16:56;;;;;;;7.93;5.70;;;9.50;99.90;;;;;;5074121;28;20649;-69
2021/10/19 04:19:21;;;;;;;8.80;5.53;;;9.50;99.90;;;;;;5092515;28;20181;-69
2021/10/19 04:21:48;;;;;;;8.87;5.83;;;9.50;99.90;;;;;;5091065;28;20205;-70
2021/10/19 04:24:16;;;;;;;10.20;5.73;;;9.60;99.90;;;;;;5092294;28;20154;-69
2021/10/19 04:26:43;;;;;;;8.20;5.90;;;9.50;99.90;;;;;;5092275;28;20982;-70
2021/10/19 04:29:12;;;;;;;10.53;5.07;;;9.50;99.90;;;;;;5092177;28;20439;-69
2021/10/19 04:31:41;;;;;;;8.70;5.90;;;9.50;99.90;;;;;;5092366;28;20500;-70
2021/10/19 04:34:07;;;;;;;7.40;5.50;;;9.50;99.90;;;;;;5092068;28;20838;-70
2021/10/19 04:36:33;;;;;;;8.13;5.43;;;9.50;99.90;;;;;;5090909;28;20432;-72
2021/10/19 04:38:59;;;;;;;9.03;6.43;;;9.50;99.90;;;;;;5092402;28;20191;-71
2021/10/19 04:41:24;;;;;;;7.47;5.97;;;9.50;99.90;;;;;;5092326;28;20404;-73
2021/10/19 04:43:50;;;;;;;9.93;6.30;;;9.40;99.90;;;;;;5090805;28;20242;-72
2021/10/19 04:46:15;;;;;;;5.73;5.13;;;9.50;99.90;;;;;;5092176;28;20215;-73
2021/10/19 04:48:41;;;;;;;10.00;6.13;;;9.40;99.90;;;;;;5091242;28;20218;-73
2021/10/19 04:51:09;;;;;;;8.17;5.10;;;9.40;99.90;;;;;;5092044;28;20161;-73
2021/10/19 04:53:34;;;;;;;9.93;6.67;;;9.40;99.90;;;;;;5091959;28;20405;-73
2021/10/19 04:56:00;;;;;;;13.27;5.97;;;9.40;99.90;;;;;;5092030;28;20403;-73
2021/10/19 04:58:25;;;;;;;9.00;6.07;;;9.30;99.90;;;;;;5085579;28;20593;-71
2021/10/19 05:00:54;;;;;;;8.20;5.77;;;9.30;99.90;;;;;;5072559;28;20193;-73
2021/10/19 05:03:23;;;;;;;7.20;5.40;;;9.30;99.90;;;;;;5081660;28;20240;-72
2021/10/19 05:05:49;;;;;;;10.60;7.87;;;9.30;99.90;;;;;;5091697;28;20455;-73
2021/10/19 05:08:15;;;;;;;8.17;7.00;;;9.20;99.90;;;;;;5091693;28;20426;-73
2021/10/19 05:10:43;;;;;;;17.70;5.77;;;9.20;99.90;;;;;;5091853;28;20413;-71
2021/10/19 05:13:09;;;;;;;12.67;8.43;;;9.20;99.90;;;;;;5091542;28;20167;-73
2021/10/19 05:15:34;;;;;;;11.77;6.80;;;9.20;99.90;;;;;;5091926;28;20506;-72
2021/10/19 05:18:00;;;;;;;8.43;6.70;;;9.20;99.90;;;;;;5091481;28;20479;-70
2021/10/19 05:20:25;;;;;;;11.97;7.10;;;9.20;99.90;;;;;;5092657;28;20177;-73
2021/10/19 05:22:51;;;;;;;7.17;6.07;;;9.20;99.90;;;;;;5092213;28;20228;-72
2021/10/19 05:25:17;;;;;;;10.47;7.10;;;9.20;99.90;;;;;;5092383;28;20581;-71
2021/10/19 05:27:45;;;;;;;13.43;7.57;;;9.20;99.90;;;;;;5092393;28;20461;-71
2021/10/19 05:30:11;;;;;;;10.57;6.43;;;9.20;99.90;;;;;;5092657;28;20608;-72
2021/10/19 05:32:37;;;;;;;10.73;7.23;;;9.20;99.90;;;;;;5089402;28;20415;-71
2021/10/19 05:35:03;;;;;;;9.40;6.37;;;9.20;99.90;;;;;;5081413;28;20971;-70
2021/10/19 05:37:29;;;;;;;12.67;7.50;;;9.20;99.90;;;;;;5090244;28;20692;-71
2021/10/19 05:39:54;;;;;;;10.10;6.90;;;9.20;99.90;;;;;;5091859;28;20428;-71
2021/10/19 05:42:20;;;;;;;7.37;6.27;;;9.20;99.90;;;;;;5092492;28;20797;-71
2021/10/19 05:44:45;;;;;;;9.10;6.37;;;9.20;99.90;;;;;;5072293;28;20543;-72
2021/10/19 05:47:11;;;;;;;10.13;5.80;;;9.20;99.90;;;;;;5071973;28;20236;-70
2021/10/19 05:49:39;;;;;;;9.30;7.47;;;9.30;99.90;;;;;;5071988;28;20166;-72
2021/10/19 05:52:05;;;;;;;9.00;5.50;;;9.20;99.90;;;;;;5085504;28;20407;-71
2021/10/19 05:54:30;;;;;;;10.20;7.17;;;9.30;99.90;;;;;;5092089;28;20400;-72
2021/10/19 05:56:56;;;;;;;13.47;7.87;;;9.30;99.90;;;;;;5091846;28;20215;-71
2021/10/19 05:59:22;;;;;;;8.90;6.50;;;9.30;99.90;;;;;;5092036;28;20564;-70
2021/10/19 06:01:51;;;;;;;12.50;8.20;;;9.30;99.90;;;;;;5091920;28;20712;-71
2021/10/19 06:04:16;;;;;;;9.67;6.50;;;9.40;99.90;;;;;;5091968;28;20395;-71
2021/10/19 06:06:52;;;;;;;11.13;6.80;;;9.40;99.90;;;;;;5091652;28;20496;-71
2021/10/19 06:09:18;;;;;;;7.97;6.43;;;9.40;99.90;;;;;;5092070;28;20176;-71
2021/10/19 06:11:43;;;;;;;13.33;6.87;;;9.50;99.90;;;;;;5093016;28;20409;-72
2021/10/19 06:14:09;;;;;;;9.67;6.97;;;9.50;99.90;;;;;;5095656;28;20165;-72
2021/10/19 06:16:37;;;;;;;8.00;6.27;;;9.50;99.90;;;;;;5095587;28;20193;-71
2021/10/19 06:19:05;;;;;;;11.10;7.67;;;9.50;99.90;;;;;;5095782;28;20282;-72
2021/10/19 06:21:31;;;;;;;9.80;6.33;;;9.60;99.90;;;;;;5095580;28;20449;-70
2021/10/19 06:23:56;;;;;;;12.83;7.13;;;9.60;99.90;;;;;;5095113;28;20451;-71
2021/10/19 06:26:22;;;;;;;11.00;7.03;;;9.70;99.90;;;;;;5095568;28;20662;-69
2021/10/19 06:28:47;;;;;;;12.50;6.50;;;9.80;99.90;;;;;;5095518;28;20678;-71
2021/10/19 06:31:13;;;;;;;10.07;7.03;;;9.80;99.90;;;;;;5095296;28;20169;-71
2021/10/19 06:33:41;;;;;;;10.20;5.93;;;9.90;99.90;;;;;;5095176;28;20177;-71
2021/10/19 06:36:06;;;;;;;11.97;7.13;;;10.00;99.90;;;;;;5095333;28;20169;-70
2021/10/19 06:38:35;;;;;;;14.77;7.50;;;10.00;99.90;;;;;;5095160;28;20426;-71
2021/10/19 06:41:00;;;;;;;9.93;7.60;;;10.10;99.90;;;;;;5093428;28;20174;-71
2021/10/19 06:43:26;;;;;;;13.10;7.20;;;10.10;99.90;;;;;;5094723;28;20437;-72
2021/10/19 06:45:51;;;;;;;11.97;7.90;;;10.20;99.90;;;;;;5094885;28;20195;-72
2021/10/19 06:48:17;;;;;;;6.70;5.27;;;10.20;99.90;;;;;;5094295;28;20186;-71
2021/10/19 06:50:42;;;;;;;13.10;7.10;;;10.20;99.90;;;;;;5094349;28;20168;-71
2021/10/19 06:53:08;;;;;;;13.60;7.40;;;10.20;99.90;;;;;;5093966;28;20652;-72
2021/10/19 06:55:33;;;;;;;9.97;7.37;;;10.20;99.90;;;;;;5094019;28;20174;-71
2021/10/19 06:57:59;;;;;;;9.60;7.43;;;10.30;99.90;;;;;;5093999;28;20543;-70
2021/10/19 07:00:24;;;;;;;9.77;6.53;;;10.40;99.90;;;;;;5094582;28;20169;-71
2021/10/19 07:02:50;;;;;;;11.13;7.30;;;10.40;99.90;;;;;;5093865;28;20174;-72
2021/10/19 07:05:16;;;;;;;12.30;7.80;;;10.50;99.90;;;;;;5092436;28;20201;-71
2021/10/19 07:07:45;;;;;;;11.20;7.67;;;10.50;99.90;;;;;;5093575;28;20702;-71
2021/10/19 07:10:11;;;;;;;13.33;6.83;;;10.60;99.90;;;;;;5092643;28;20426;-72
2021/10/19 07:12:40;;;;;;;8.77;6.20;;;10.60;99.90;;;;;;5094055;28;20400;-71
2021/10/19 07:15:08;;;;;;;9.67;7.27;;;10.50;99.90;;;;;;5092249;28;20468;-70
2021/10/19 07:17:34;;;;;;;6.17;5.57;;;10.60;99.90;;;;;;5081411;28;20532;-71
2021/10/19 07:19:59;;;;;;;12.53;7.10;;;10.70;99.90;;;;;;5093317;28;20450;-71
2021/10/19 07:22:28;;;;;;;15.20;7.47;;;10.70;99.90;;;;;;5092570;28;20388;-71
2021/10/19 07:24:54;;;;;;;8.97;6.40;;;10.80;99.90;;;;;;5093043;28;20190;-71
2021/10/19 07:27:20;;;;;;;8.67;6.43;;;10.80;99.90;;;;;;5093387;28;20434;-71
2021/10/19 07:29:45;;;;;;;11.67;6.43;;;10.90;99.90;;;;;;5093475;28;20445;-71
2021/10/19 07:32:11;;;;;;;11.87;7.57;;;11.00;99.90;;;;;;5093202;28;20162;-71
2021/10/19 07:34:36;;;;;;;9.57;6.87;;;11.00;99.90;;;;;;5085790;28;20537;-71
2021/10/19 07:37:02;;;;;;;8.80;6.40;;;11.00;99.90;;;;;;5093016;28;20181;-70
2021/10/19 07:39:28;;;;;;;11.00;7.30;;;11.10;99.90;;;;;;5093454;28;20243;-72
2021/10/19 07:41:53;;;;;;;13.00;7.80;;;11.20;99.90;;;;;;5093147;28;20165;-71
2021/10/19 07:44:19;;;;;;;9.87;6.17;;;11.20;99.90;;;;;;5093116;28;20166;-71
2021/10/19 07:46:44;;;;;;;14.53;8.07;;;11.30;99.90;;;;;;5092756;28;20280;-70
2021/10/19 07:49:10;;;;;;;9.90;6.50;;;11.30;99.90;;;;;;5093039;28;20173;-71
2021/10/19 07:51:36;;;;;;;7.53;6.10;;;11.40;99.90;;;;;;5092774;28;20192;-71
2021/10/19 07:54:01;;;;;;;12.13;8.60;;;11.40;99.90;;;;;;5092822;28;20165;-71
2021/10/19 07:56:27;;;;;;;12.20;6.97;;;11.50;99.90;;;;;;5092901;28;20767;-70
2021/10/19 07:58:52;;;;;;;11.50;6.47;;;11.50;99.90;;;;;;5092735;28;20169;-71
2021/10/19 08:01:18;;;;;;;11.70;7.23;;;11.70;99.90;;;;;;5092291;28;20169;-74
2021/10/19 08:03:44;;;;;;;12.07;7.97;;;11.90;99.90;;;;;;5092454;28;20211;-72
2021/10/19 08:06:09;;;;;;;11.97;6.30;;;11.90;99.90;;;;;;5092503;28;20210;-71
2021/10/19 08:08:37;;;;;;;11.60;7.70;;;12.10;99.90;;;;;;5092428;28;20200;-70
2021/10/19 08:11:04;;;;;;;9.10;6.60;;;12.20;99.90;;;;;;5089534;28;20174;-72
2021/10/19 08:13:30;;;;;;;13.00;5.90;;;12.80;99.90;;;;;;5090778;28;20937;-72
2021/10/19 08:15:55;;;;;;;10.27;6.60;;;13.20;99.90;;;;;;5092457;28;20495;-72
2021/10/19 08:18:21;;;;;;;10.90;6.40;;;13.20;99.90;;;;;;5092603;28;20297;-72
2021/10/19 08:20:46;;;;;;;7.70;5.83;;;13.20;99.90;;;;;;5092864;28;20224;-72
2021/10/19 08:23:12;;;;;;;9.50;7.03;;;13.10;99.90;;;;;;5092518;28;20165;-71
2021/10/19 08:25:38;;;;;;;11.17;7.50;;;13.10;99.90;;;;;;5074239;28;20204;-71
2021/10/19 08:28:04;;;;;;;8.57;7.07;;;13.10;99.90;;;;;;5092254;28;20182;-71
2021/10/19 08:30:29;;;;;;;9.10;6.40;;;13.20;99.90;;;;;;5092473;28;20911;-72
2021/10/19 08:32:56;;;;;;;8.40;6.03;;;13.30;99.90;;;;;;5091967;28;20400;-72
2021/10/19 08:35:22;;;;;;;10.20;7.37;;;13.40;99.90;;;;;;5091484;28;20165;-73
2021/10/19 08:37:48;;;;;;;7.10;4.87;;;13.50;99.90;;;;;;5091901;28;20423;-72
2021/10/19 08:40:14;;;;;;;13.30;7.17;;;13.70;99.90;;;;;;5091687;28;20809;-72
2021/10/19 08:42:42;;;;;;;8.90;6.77;;;14.10;99.90;;;;;;5092062;28;20786;-70
2021/10/19 08:45:13;;;;;;;8.10;5.73;;;13.80;99.90;;;;;;5091719;28;20446;-70
2021/10/19 08:47:40;;;;;;;6.77;5.97;;;14.00;99.90;;;;;;5091496;28;20642;-72
2021/10/19 08:50:07;;;;;;;7.70;6.27;;;14.60;99.90;;;;;;5091662;28;20395;-71
2021/10/19 08:52:32;;;;;;;7.63;5.40;;;15.20;99.90;;;;;;5091487;28;20403;-70
2021/10/19 08:54:58;;;;;;;9.40;6.40;;;14.90;99.90;;;;;;5091718;28;20443;-71
2021/10/19 08:57:23;;;;;;;7.90;6.67;;;14.80;99.90;;;;;;5091701;28;20216;-72
2021/10/19 08:59:49;;;;;;;9.70;6.80;;;15.00;99.90;;;;;;5091730;28;20599;-72
2021/10/19 09:02:15;;;;;;;8.30;6.87;;;15.30;99.90;;;;;;5090856;28;20177;-72
2021/10/19 09:04:45;;;;;;;8.60;7.13;;;15.40;99.90;;;;;;5091016;28;20489;-72
2021/10/19 09:07:10;;;;;;;7.20;5.30;;;15.20;99.90;;;;;;5091548;28;20414;-72
2021/10/19 09:09:36;;;;;;;7.77;5.90;;;15.50;99.90;;;;;;5091724;28;20409;-72
2021/10/19 09:12:03;;;;;;;10.53;7.10;;;15.60;99.90;;;;;;5091621;28;20173;-71
2021/10/19 09:14:37;;;;;;;8.27;6.10;;;15.30;99.90;;;;;;5091516;28;20399;-71
2021/10/19 09:17:04;;;;;;;7.33;6.43;;;15.30;99.90;;;;;;5091512;28;20422;-71
2021/10/19 09:19:31;;;;;;;7.90;6.53;;;14.90;99.90;;;;;;5091432;28;20418;-74
2021/10/19 09:22:03;;;;;;;8.23;5.87;;;14.90;99.90;;;;;;5091480;28;20401;-71
2021/10/19 09:24:37;;;;;;;7.20;6.30;;;14.90;99.90;;;;;;5092013;28;20400;-73
2021/10/19 09:27:07;;;;;;;8.30;5.70;;;14.80;99.90;;;;;;5091980;28;20453;-73
2021/10/19 09:29:40;;;;;;;7.80;6.00;;;14.60;99.90;;;;;;5092038;28;20399;-71
2021/10/19 09:32:07;;;;;;;9.63;6.90;;;14.50;99.90;;;;;;5092654;28;20889;-74
2021/10/19 09:34:34;;;;;;;6.63;5.97;;;14.60;99.90;;;;;;5092438;28;20888;-73
2021/10/19 09:37:01;;;;;;;7.80;6.10;;;14.60;99.90;;;;;;5090554;28;20475;-72
2021/10/19 09:39:35;;;;;;;7.73;5.23;;;14.80;99.90;;;;;;5092746;28;20405;-72
2021/10/19 09:42:08;;;;;;;6.90;6.03;;;14.90;99.90;;;;;;5092540;28;20400;-73
2021/10/19 09:44:33;;;;;;;9.90;6.00;;;14.80;99.90;;;;;;5091052;28;20460;-71
2021/10/19 09:47:00;;;;;;;9.67;5.80;;;14.90;99.90;;;;;;5093908;28;20418;-73
2021/10/19 09:49:28;;;;;;;8.20;5.53;;;14.90;99.90;;;;;;5095690;28;20308;-76
2021/10/19 09:51:57;;;;;;;9.97;7.23;;;14.90;99.90;;;;;;5095379;28;20402;-72
2021/10/19 09:54:27;;;;;;;7.90;6.60;;;15.00;99.90;;;;;;5095161;28;20417;-71
2021/10/19 09:56:54;;;;;;;7.70;5.73;;;15.10;99.90;;;;;;5095115;28;20522;-72
2021/10/19 09:59:20;;;;;;;6.77;5.53;;;15.30;99.90;;;;;;5095051;28;20400;-72
2021/10/19 10:01:46;;;;;;;7.50;6.07;;;15.00;99.90;;;;;;5094952;28;20478;-73
2021/10/19 10:04:13;;;;;;;10.20;6.17;;;15.00;99.90;;;;;;5094938;28;20498;-71
2021/10/19 10:06:40;;;;;;;10.33;6.23;;;15.20;99.90;;;;;;5095124;28;20626;-71
2021/10/19 10:09:06;;;;;;;7.73;5.80;;;15.30;99.90;;;;;;5095356;28;20406;-72
2021/10/19 10:11:32;;;;;;;9.20;5.87;;;15.10;99.90;;;;;;5094814;28;20912;-72
2021/10/19 10:14:02;;;;;;;9.20;6.10;;;15.20;99.90;;;;;;5094702;28;20401;-72
2021/10/19 10:16:28;;;;;;;7.47;5.57;;;15.30;99.90;;;;;;5094837;28;20599;-72
2021/10/19 10:18:54;;;;;;;10.63;7.20;;;15.30;99.90;;;;;;5094927;28;20891;-72
2021/10/19 10:21:24;;;;;;;7.57;4.50;;;15.30;99.90;;;;;;5093165;28;20397;-72
2021/10/19 10:24:04;;;;;;;7.83;5.60;;;15.30;99.90;;;;;;5085685;28;20237;-73
2021/10/19 10:26:32;;;;;;;6.90;5.57;;;15.20;99.90;;;;;;5074215;28;20462;-72
2021/10/19 10:29:11;;;;;;;8.73;5.57;;;15.10;99.90;;;;;;5084918;28;20835;-72
2021/10/19 10:31:51;;;;;;;8.37;6.30;;;15.20;99.90;;;;;;5092993;28;20441;-70
2021/10/19 10:34:28;;;;;;;5.70;5.10;;;15.30;99.90;;;;;;5074107;28;20394;-71
2021/10/19 10:36:54;;;;;;;9.03;6.03;;;15.20;99.90;;;;;;5082210;28;20453;-72
2021/10/19 10:39:20;;;;;;;8.67;6.10;;;15.40;99.90;;;;;;5094085;28;20406;-72
2021/10/19 10:41:47;;;;;;;7.30;5.90;;;15.40;99.90;;;;;;5087377;28;20244;-71
2021/10/19 10:44:15;;;;;;;8.00;6.33;;;15.50;99.90;;;;;;5094071;28;20183;-71
2021/10/19 10:46:41;;;;;;;7.40;5.50;;;15.60;99.90;;;;;;5093905;28;20456;-72
2021/10/19 10:49:12;;;;;;;7.90;5.83;;;15.40;99.90;;;;;;5094028;28;20401;-72
2021/10/19 10:51:39;;;;;;;10.40;6.90;;;15.60;99.90;;;;;;5092805;28;20433;-72
2021/10/19 10:54:05;;;;;;;8.00;5.27;;;15.60;99.90;;;;;;5093868;28;20396;-72
2021/10/19 10:57:01;;;;;;;8.40;6.30;;;15.60;99.90;;;;;;5093827;28;20538;-72
2021/10/19 10:59:28;;;;;;;7.30;5.60;;;15.70;99.90;;;;;;5089732;28;20417;-72
2021/10/19 11:01:55;;;;;;;9.00;4.80;;;15.80;99.90;;;;;;5094954;28;20425;-72
2021/10/19 11:04:21;;;;;;;11.40;5.50;;;16.00;99.90;;;;;;5093879;28;20413;-72
2021/10/19 11:06:46;;;;;;;7.60;5.43;;;16.00;99.90;;;;;;5093654;28;20492;-71
2021/10/19 11:09:14;;;;;;;8.90;5.87;;;16.20;99.90;;;;;;5093882;28;20165;-71
2021/10/19 11:11:46;;;;;;;9.93;5.80;;;16.10;99.90;;;;;;5092528;28;20196;-70
2021/10/19 11:14:16;;;;;;;8.33;5.57;;;16.10;99.90;;;;;;5093840;28;20403;-72
2021/10/19 11:16:45;;;;;;;6.47;5.60;;;16.20;99.90;;;;;;5093761;28;20956;-70
2021/10/19 11:19:17;;;;;;;8.97;6.23;;;16.20;99.90;;;;;;5093766;28;20873;-71
2021/10/19 11:21:43;;;;;;;6.80;5.90;;;16.30;99.90;;;;;;5093728;28;20405;-72
2021/10/19 11:24:09;;;;;;;8.53;5.37;;;16.30;99.90;;;;;;5093642;28;20397;-72
2021/10/19 11:26:35;;;;;;;8.30;6.50;;;16.50;99.90;;;;;;5093681;28;20461;-72
2021/10/19 11:29:01;;;;;;;7.10;5.30;;;16.40;99.90;;;;;;5093527;28;20407;-72
2021/10/19 11:31:32;;;;;;;5.93;4.87;;;16.70;99.90;;;;;;5093906;28;20174;-72
2021/10/19 11:33:59;;;;;;;6.90;5.00;;;16.70;99.90;;;;;;5093464;28;20399;-72
2021/10/19 11:36:25;;;;;;;6.87;5.13;;;16.80;99.90;;;;;;5092895;28;20455;-73
2021/10/19 11:38:55;;;;;;;7.03;5.33;;;16.80;99.90;;;;;;5088997;28;20522;-71
2021/10/19 11:41:24;;;;;;;6.83;5.13;;;16.70;99.90;;;;;;5094328;28;20575;-69
2021/10/19 11:43:53;;;;;;;8.40;5.43;;;16.80;99.90;;;;;;5091860;28;20415;-69
2021/10/19 11:46:23;;;;;;;6.60;5.13;;;16.90;99.90;;;;;;5073006;28;20451;-69
2021/10/19 11:48:51;;;;;;;7.30;6.07;;;17.00;99.90;;;;;;5072111;28;20475;-68
2021/10/19 11:51:20;;;;;;;7.97;5.60;;;16.80;99.90;;;;;;5072615;28;20393;-68
2021/10/19 11:53:46;;;;;;;5.27;4.77;;;16.80;99.90;;;;;;5072707;28;20416;-70
2021/10/19 11:56:14;;;;;;;6.73;4.63;;;16.80;99.90;;;;;;5072916;28;20488;-68
2021/10/19 11:58:52;;;;;;;6.23;5.03;;;16.80;99.90;;;;;;5092840;28;20784;-68
2021/10/19 12:01:19;;;;;;;5.20;4.70;;;17.00;99.90;;;;;;5092522;28;20396;-69
2021/10/19 12:03:56;;;;;;;9.33;4.47;;;17.10;99.90;;;;;;5091477;28;20461;-69
2021/10/19 12:06:29;;;;;;;6.27;4.87;;;17.00;99.90;;;;;;5072360;28;20447;-69
2021/10/19 12:08:56;;;;;;;4.47;3.90;;;16.90;99.90;;;;;;5071823;28;20407;-69
2021/10/19 12:11:24;;;;;;;5.63;4.63;;;17.20;99.90;;;;;;5072358;28;20441;-69
2021/10/19 12:13:57;;;;;;;5.73;5.10;;;17.10;99.90;;;;;;5072067;28;20404;-69
2021/10/19 12:16:31;;;;;;;3.57;3.10;;;17.10;99.90;;;;;;5072051;28;20400;-69
2021/10/19 12:18:59;;;;;;;5.47;3.70;;;17.20;99.90;;;;;;5072180;28;20435;-69
2021/10/19 12:21:27;;;;;;;5.63;4.07;;;17.10;99.90;;;;;;5072683;28;20419;-70
2021/10/19 12:23:58;;;;;;;5.83;3.90;;;17.00;99.90;;;;;;5071762;28;20417;-70
2021/10/19 12:26:27;;;;;;;4.97;4.27;;;17.00;99.90;;;;;;5071753;28;20854;-69
2021/10/19 12:28:55;;;;;;;4.83;3.73;;;17.20;99.90;;;;;;5071869;28;20440;-69
2021/10/19 12:31:22;;;;;;;4.03;3.73;;;17.10;99.90;;;;;;5088159;28;20435;-70
2021/10/19 12:33:53;;;;;;;4.73;3.50;;;17.00;99.90;;;;;;5086600;28;20415;-69
2021/10/19 12:36:22;;;;;;;4.37;3.73;;;17.00;99.90;;;;;;5092860;28;20399;-70
2021/10/19 12:38:48;;;;;;;4.67;3.50;;;17.00;99.90;;;;;;5091418;28;20445;-69
2021/10/19 12:41:19;;;;;;;4.70;4.17;;;17.10;99.90;;;;;;5091710;28;20439;-69
2021/10/19 12:43:49;;;;;;;5.37;3.60;;;17.20;99.90;;;;;;5090435;28;20419;-70
2021/10/19 12:46:17;;;;;;;4.80;3.40;;;17.10;99.90;;;;;;5091991;28;20450;-68